Time;durP1;ratioP1;P1;durP2;ratioP2;P2;SDS_P1;SDS_P2;PMS_P1;PMS_P2;Temp;Humidity;BMP_temperature;BMP_pressure;BME280_temperature;BME280_humidity;BME280_pressure;Samples;Min_cycle;Max_cycle;Signal;HPM_P1;HPM_P2
2022/12/29 00:02:15;;;;;;;11.80;7.78;;;9.60;99.90;;;;;;5141991;27;20035;-58
2022/12/29 00:04:41;;;;;;;12.57;9.05;;;9.90;99.90;;;;;;5153525;27;20030;-58
2022/12/29 00:07:07;;;;;;;10.27;7.97;;;9.50;99.90;;;;;;5150867;27;20073;-58
2022/12/29 00:09:34;;;;;;;12.05;8.63;;;9.50;99.90;;;;;;5124981;27;20058;-58
2022/12/29 00:12:01;;;;;;;13.60;8.70;;;9.30;99.90;;;;;;5140471;27;20920;-58
2022/12/29 00:17:11;;;;;;;10.35;7.90;;;9.40;99.90;;;;;;5145343;27;20047;-58
2022/12/29 00:36:20;;;;;;;8.95;6.32;;;10.10;99.90;;;;;;5147806;27;20054;-59
2022/12/29 00:44:21;;;;;;;10.15;6.10;;;10.00;99.90;;;;;;5146435;27;20495;-59
2022/12/29 00:46:46;;;;;;;8.85;5.65;;;10.00;99.90;;;;;;5146774;27;20038;-59
2022/12/29 00:49:32;;;;;;;9.38;6.35;;;10.50;99.90;;;;;;5122863;27;20519;-58
2022/12/29 00:52:02;;;;;;;8.70;5.88;;;10.40;99.90;;;;;;5146124;27;20186;-59
2022/12/29 00:54:30;;;;;;;8.63;6.22;;;10.10;99.90;;;;;;5149115;27;20042;-58
2022/12/29 00:56:56;;;;;;;9.35;5.63;;;10.10;99.90;;;;;;5142527;27;20042;-59
2022/12/29 00:59:23;;;;;;;9.63;6.25;;;10.20;99.90;;;;;;5146885;27;20137;-59
2022/12/29 01:01:50;;;;;;;8.55;6.05;;;10.40;99.90;;;;;;5127744;27;20048;-59
2022/12/29 01:04:16;;;;;;;11.23;6.07;;;10.40;99.90;;;;;;5148214;27;20050;-59
2022/12/29 01:06:42;;;;;;;13.73;6.15;;;10.10;99.90;;;;;;5147322;27;20039;-58
2022/12/29 01:12:08;;;;;;;9.10;6.00;;;10.40;99.90;;;;;;5119245;27;20051;-59
2022/12/29 01:14:35;;;;;;;7.85;5.60;;;10.40;99.90;;;;;;5123168;27;20043;-58
2022/12/29 01:17:00;;;;;;;8.27;6.30;;;10.40;99.90;;;;;;5144312;27;20039;-59
2022/12/29 01:19:26;;;;;;;9.65;7.05;;;10.10;99.90;;;;;;5149372;27;20073;-57
2022/12/29 01:21:52;;;;;;;10.27;6.13;;;10.30;99.90;;;;;;5130323;27;20064;-58
2022/12/29 01:24:19;;;;;;;9.43;6.20;;;10.30;99.90;;;;;;5146356;27;20112;-59
2022/12/29 01:26:45;;;;;;;8.70;6.38;;;10.40;99.90;;;;;;5142113;27;20119;-59
2022/12/29 01:29:12;;;;;;;12.85;6.15;;;10.40;99.90;;;;;;5126005;27;20035;-57
2022/12/29 01:31:37;;;;;;;7.47;6.00;;;10.10;99.90;;;;;;5150122;27;20065;-57
2022/12/29 01:34:03;;;;;;;8.68;6.25;;;10.30;99.90;;;;;;5149993;27;20047;-57
2022/12/29 01:36:29;;;;;;;10.25;6.45;;;10.30;99.90;;;;;;5149787;27;20538;-57
2022/12/29 01:38:56;;;;;;;7.90;6.10;;;10.00;99.90;;;;;;5146736;27;20051;-57
2022/12/29 01:41:21;;;;;;;8.70;6.35;;;10.40;99.90;;;;;;5145264;27;20041;-57
2022/12/29 01:43:59;;;;;;;9.55;6.70;;;10.40;99.90;;;;;;5133333;27;20125;-58
2022/12/29 01:46:41;;;;;;;10.07;6.90;;;10.20;99.90;;;;;;5145688;27;20102;-57
2022/12/29 01:49:21;;;;;;;8.75;6.78;;;10.30;99.90;;;;;;5152355;27;20045;-58
2022/12/29 01:51:58;;;;;;;9.73;6.90;;;10.20;99.90;;;;;;5144038;27;20031;-58
2022/12/29 01:54:26;;;;;;;9.55;7.03;;;10.30;99.90;;;;;;5144007;27;20050;-58
2022/12/29 01:56:56;;;;;;;12.13;7.35;;;9.80;99.90;;;;;;5150310;27;20047;-58
2022/12/29 01:59:27;;;;;;;9.77;6.63;;;10.30;99.90;;;;;;5147843;27;20081;-58
2022/12/29 02:01:54;;;;;;;9.48;7.43;;;10.20;99.90;;;;;;5153179;27;20107;-58
2022/12/29 02:04:19;;;;;;;9.13;7.18;;;10.20;99.90;;;;;;5150975;27;20050;-58
2022/12/29 02:06:51;;;;;;;10.45;7.20;;;9.80;99.90;;;;;;5150024;27;20027;-58
2022/12/29 02:09:16;;;;;;;10.90;7.75;;;10.30;99.90;;;;;;5145353;27;20085;-59
2022/12/29 02:11:42;;;;;;;12.90;8.18;;;10.00;99.90;;;;;;5145670;27;20799;-59
2022/12/29 02:14:12;;;;;;;11.98;8.38;;;10.20;99.90;;;;;;5150871;27;20046;-59
2022/12/29 02:16:41;;;;;;;11.45;8.73;;;9.60;99.90;;;;;;5145317;27;20055;-59
2022/12/29 02:19:34;;;;;;;11.25;9.18;;;10.20;99.90;;;;;;5149504;27;20049;-59
2022/12/29 02:22:12;;;;;;;14.00;8.98;;;10.10;99.90;;;;;;5155354;27;20035;-59
2022/12/29 02:25:08;;;;;;;11.20;8.40;;;10.10;99.90;;;;;;5155322;27;20043;-59
2022/12/29 02:27:36;;;;;;;11.88;8.48;;;9.70;99.90;;;;;;5157126;27;20036;-60
2022/12/29 02:30:27;;;;;;;10.05;7.30;;;9.90;99.90;;;;;;5147413;27;20118;-60
2022/12/29 02:33:13;;;;;;;10.88;6.97;;;10.00;99.90;;;;;;5153867;27;20050;-61
2022/12/29 02:35:48;;;;;;;11.18;7.10;;;9.90;99.90;;;;;;5150906;27;20039;-61
2022/12/29 02:38:20;;;;;;;11.98;8.05;;;9.60;99.90;;;;;;5128073;27;20046;-61
2022/12/29 02:40:54;;;;;;;13.05;7.38;;;9.90;99.90;;;;;;5130366;27;20051;-61
2022/12/29 02:43:41;;;;;;;12.63;7.57;;;10.00;99.90;;;;;;5150523;27;20042;-60
2022/12/29 02:46:30;;;;;;;11.23;6.70;;;9.60;99.90;;;;;;5150096;27;20047;-60
2022/12/29 02:49:10;;;;;;;10.15;6.85;;;9.50;99.90;;;;;;5103368;27;20051;-60
2022/12/29 02:51:46;;;;;;;9.88;6.88;;;9.40;99.90;;;;;;5142898;27;20043;-61
2022/12/29 02:56:56;;;;;;;10.10;5.85;;;9.60;99.90;;;;;;5144101;27;20078;-60
2022/12/29 02:59:22;;;;;;;8.02;5.50;;;9.90;99.90;;;;;;5143315;27;20031;-58
2022/12/29 03:02:20;;;;;;;8.70;5.47;;;9.60;99.90;;;;;;5143806;27;20031;-60
2022/12/29 03:04:55;;;;;;;6.82;4.10;;;10.00;99.90;;;;;;5153803;27;20054;-59
2022/12/29 03:07:36;;;;;;;7.38;3.97;;;9.50;99.90;;;;;;5142770;27;20063;-60
2022/12/29 03:10:34;;;;;;;7.97;3.70;;;10.10;99.90;;;;;;5148855;27;20039;-60
2022/12/29 03:16:04;;;;;;;7.15;3.30;;;10.20;99.90;;;;;;5140427;27;20125;-59
2022/12/29 03:19:10;;;;;;;6.55;3.38;;;9.80;99.90;;;;;;5135405;27;20081;-58
2022/12/29 03:24:39;;;;;;;7.15;3.17;;;10.00;99.90;;;;;;5148521;27;20046;-58
2022/12/29 03:27:07;;;;;;;6.85;2.95;;;10.10;99.90;;;;;;5154534;27;20028;-58
2022/12/29 03:29:39;;;;;;;6.68;2.88;;;10.10;99.90;;;;;;5136190;27;20086;-58
2022/12/29 03:32:06;;;;;;;7.22;2.00;;;9.70;99.90;;;;;;5134486;27;20078;-58
2022/12/29 03:34:34;;;;;;;7.28;2.13;;;9.80;99.90;;;;;;5152229;27;20132;-58
2022/12/29 03:37:09;;;;;;;5.30;2.17;;;10.00;99.90;;;;;;5129842;27;20043;-58
2022/12/29 03:39:36;;;;;;;7.53;2.10;;;10.20;99.90;;;;;;5146048;27;20039;-58
2022/12/29 03:42:12;;;;;;;7.70;1.80;;;9.90;99.90;;;;;;5140863;27;20039;-57
2022/12/29 03:44:40;;;;;;;5.18;1.75;;;9.90;99.90;;;;;;5143370;27;20042;-58
2022/12/29 03:47:06;;;;;;;11.20;2.40;;;9.70;99.90;;;;;;5143310;27;20031;-58
2022/12/29 03:49:32;;;;;;;7.13;2.15;;;9.60;99.90;;;;;;5124069;27;20058;-58
2022/12/29 03:51:58;;;;;;;10.15;2.88;;;9.80;99.90;;;;;;5142127;27;20031;-57
2022/12/29 03:54:24;;;;;;;7.07;1.98;;;9.60;99.90;;;;;;5142201;27;20075;-58
2022/12/29 03:56:50;;;;;;;9.52;1.92;;;9.60;99.90;;;;;;5149137;27;20074;-58
2022/12/29 03:59:16;;;;;;;7.43;2.00;;;9.60;99.90;;;;;;5150359;27;20040;-58
2022/12/29 04:01:42;;;;;;;6.38;2.10;;;9.50;99.90;;;;;;5148563;27;20071;-58
2022/12/29 04:04:07;;;;;;;5.35;2.10;;;9.40;99.90;;;;;;5149385;27;20039;-58
2022/12/29 04:06:35;;;;;;;6.07;2.28;;;9.60;99.90;;;;;;5145467;27;20047;-58
2022/12/29 04:09:01;;;;;;;6.25;2.38;;;9.50;99.90;;;;;;5141761;27;20043;-58
2022/12/29 04:11:26;;;;;;;8.20;2.53;;;9.60;99.90;;;;;;5124313;27;20379;-58
2022/12/29 04:13:52;;;;;;;9.48;2.45;;;9.50;99.90;;;;;;5142620;27;20074;-58
2022/12/29 04:16:18;;;;;;;7.82;2.53;;;9.60;99.90;;;;;;5147178;27;20118;-58
2022/12/29 04:18:43;;;;;;;7.65;2.00;;;9.40;99.90;;;;;;5149896;27;20080;-58
2022/12/29 04:21:09;;;;;;;9.95;2.40;;;9.70;99.90;;;;;;5148541;27;20059;-58
2022/12/29 04:23:37;;;;;;;4.00;1.70;;;9.50;99.90;;;;;;5149634;27;20043;-58
2022/12/29 04:26:06;;;;;;;7.43;1.80;;;9.70;99.90;;;;;;5142362;27;20475;-58
2022/12/29 04:28:31;;;;;;;6.60;1.77;;;9.60;99.90;;;;;;5141517;27;20047;-58
2022/12/29 04:30:57;;;;;;;9.63;1.92;;;9.50;99.90;;;;;;5143385;27;20061;-58
2022/12/29 04:33:24;;;;;;;8.23;1.70;;;9.50;99.90;;;;;;5152097;27;20043;-58
2022/12/29 04:35:49;;;;;;;8.93;1.55;;;9.70;99.90;;;;;;5149061;27;20087;-58
2022/12/29 04:38:15;;;;;;;7.22;1.58;;;9.60;99.90;;;;;;5140033;27;20068;-59
2022/12/29 04:40:43;;;;;;;8.65;1.50;;;9.60;99.90;;;;;;5153559;27;20059;-58
2022/12/29 04:43:09;;;;;;;8.27;1.50;;;9.60;99.90;;;;;;5151261;27;20035;-58
2022/12/29 04:45:36;;;;;;;10.63;2.20;;;9.70;99.90;;;;;;5147560;27;20074;-57
2022/12/29 04:48:01;;;;;;;6.85;1.52;;;9.60;99.90;;;;;;5151702;27;20420;-58
2022/12/29 04:50:28;;;;;;;8.15;1.98;;;9.50;99.90;;;;;;5148263;27;20053;-58
2022/12/29 04:52:54;;;;;;;8.60;2.03;;;9.50;99.90;;;;;;5117271;27;20057;-57
2022/12/29 04:55:19;;;;;;;8.63;1.63;;;9.50;99.90;;;;;;5126767;27;20054;-58
2022/12/29 04:57:45;;;;;;;9.25;1.58;;;9.40;99.90;;;;;;5139035;27;20035;-57
2022/12/29 05:00:12;;;;;;;7.97;1.83;;;9.40;99.90;;;;;;5131807;27;20060;-57
2022/12/29 05:02:38;;;;;;;7.80;2.15;;;9.30;99.90;;;;;;5152638;27;20035;-58
2022/12/29 05:05:05;;;;;;;10.00;1.80;;;9.30;99.90;;;;;;5154351;27;20159;-58
2022/12/29 05:07:33;;;;;;;8.73;1.52;;;9.30;99.90;;;;;;5126604;27;20564;-57
2022/12/29 05:09:59;;;;;;;10.82;2.17;;;9.20;99.90;;;;;;5140748;27;20035;-58
2022/12/29 05:12:24;;;;;;;10.93;1.85;;;9.10;99.90;;;;;;5143907;27;20058;-57
2022/12/29 05:14:50;;;;;;;13.75;2.15;;;9.10;99.90;;;;;;5152789;27;20581;-58
2022/12/29 05:17:16;;;;;;;8.73;1.90;;;9.10;99.90;;;;;;5147388;27;20197;-57
2022/12/29 05:19:41;;;;;;;20.35;3.38;;;9.20;99.90;;;;;;5143007;27;20031;-58
2022/12/29 05:22:07;;;;;;;11.95;2.47;;;9.30;99.90;;;;;;5152019;27;20042;-57
2022/12/29 05:24:33;;;;;;;10.90;1.80;;;9.20;99.90;;;;;;5151536;27;20459;-57
2022/12/29 05:26:58;;;;;;;10.50;2.13;;;9.10;99.90;;;;;;5146201;27;20046;-58
2022/12/29 05:29:24;;;;;;;15.95;2.22;;;9.10;99.90;;;;;;5148487;27;20073;-56
2022/12/29 05:31:50;;;;;;;12.15;1.75;;;9.00;99.90;;;;;;5150591;27;20087;-58
2022/12/29 05:34:15;;;;;;;9.02;1.60;;;9.30;99.90;;;;;;5150506;27;20058;-58
2022/12/29 05:36:41;;;;;;;9.70;1.70;;;9.10;99.90;;;;;;5150343;27;20168;-58
2022/12/29 05:39:07;;;;;;;13.07;2.65;;;9.10;99.90;;;;;;5141782;27;20136;-57
2022/12/29 05:41:34;;;;;;;10.52;1.60;;;9.10;99.90;;;;;;5152966;27;20045;-58
2022/12/29 05:44:00;;;;;;;11.88;2.95;;;9.00;99.90;;;;;;5144940;27;20053;-58
2022/12/29 05:46:26;;;;;;;12.38;2.00;;;9.00;99.90;;;;;;5141074;27;20094;-57
2022/12/29 05:48:51;;;;;;;11.00;2.60;;;9.10;99.90;;;;;;5131403;27;20070;-57
2022/12/29 05:51:17;;;;;;;12.20;2.95;;;9.00;99.90;;;;;;5145962;27;20038;-57
2022/12/29 05:53:43;;;;;;;10.02;1.95;;;9.10;99.90;;;;;;5143423;27;20031;-58
2022/12/29 05:56:08;;;;;;;18.63;2.35;;;9.10;99.90;;;;;;5145040;27;20138;-57
2022/12/29 05:58:34;;;;;;;12.57;2.25;;;9.20;99.90;;;;;;5151550;27;20142;-57
2022/12/29 06:01:00;;;;;;;13.65;2.55;;;9.20;99.90;;;;;;5145821;27;20802;-57
2022/12/29 06:03:26;;;;;;;14.90;3.03;;;9.20;99.90;;;;;;5148778;27;20062;-57
2022/12/29 06:05:52;;;;;;;12.10;2.60;;;9.20;99.90;;;;;;5133899;28;20040;-57
2022/12/29 06:08:17;;;;;;;13.82;2.63;;;9.20;99.90;;;;;;5154901;27;20510;-58
2022/12/29 06:10:43;;;;;;;14.30;2.60;;;9.20;99.90;;;;;;5150325;27;20050;-58
2022/12/29 06:13:09;;;;;;;14.60;2.38;;;9.30;99.90;;;;;;5119981;28;20390;-57
2022/12/29 06:15:35;;;;;;;10.82;2.17;;;9.30;99.90;;;;;;5144646;27;20042;-57
2022/12/29 06:18:01;;;;;;;10.20;3.00;;;9.30;99.90;;;;;;5156307;27;20055;-58
2022/12/29 06:20:26;;;;;;;13.90;2.53;;;9.20;99.90;;;;;;5130398;27;20100;-58
2022/12/29 06:22:52;;;;;;;11.85;2.33;;;9.30;99.90;;;;;;5148995;27;20050;-57
2022/12/29 06:25:18;;;;;;;10.50;2.63;;;9.10;99.90;;;;;;5154474;27;20066;-57
2022/12/29 06:27:43;;;;;;;13.75;2.53;;;9.20;99.90;;;;;;5131134;27;20058;-57
2022/12/29 06:30:10;;;;;;;12.93;2.30;;;9.10;99.90;;;;;;5143420;27;20046;-57
2022/12/29 06:32:37;;;;;;;13.38;2.63;;;9.10;99.90;;;;;;5157756;27;20114;-57
2022/12/29 06:35:03;;;;;;;14.38;2.75;;;9.20;99.90;;;;;;5159638;27;20033;-57
2022/12/29 06:37:29;;;;;;;18.48;2.95;;;9.00;99.90;;;;;;5140602;27;20043;-57
2022/12/29 06:39:55;;;;;;;20.05;3.15;;;9.10;99.90;;;;;;5141662;27;20036;-58
2022/12/29 06:42:21;;;;;;;16.70;3.15;;;9.00;99.90;;;;;;5155819;27;20055;-57
2022/12/29 06:44:46;;;;;;;21.33;2.75;;;9.10;99.90;;;;;;5158773;27;20087;-57
2022/12/29 06:47:12;;;;;;;17.75;2.60;;;9.10;99.90;;;;;;5145013;27;20067;-58
2022/12/29 06:49:38;;;;;;;17.55;3.75;;;9.10;99.90;;;;;;5140734;27;20035;-58
2022/12/29 06:52:04;;;;;;;18.63;4.90;;;9.10;99.90;;;;;;5147149;27;20054;-57
2022/12/29 06:54:32;;;;;;;18.85;3.58;;;9.10;99.90;;;;;;5143330;27;20035;-58
2022/12/29 06:56:58;;;;;;;21.13;2.60;;;9.00;99.90;;;;;;5152239;27;20465;-58
2022/12/29 06:59:24;;;;;;;19.92;2.60;;;9.00;99.90;;;;;;5149161;27;20035;-58
2022/12/29 07:01:50;;;;;;;17.88;2.78;;;9.00;99.90;;;;;;5149463;27;20047;-58
2022/12/29 07:04:16;;;;;;;20.58;3.05;;;9.00;99.90;;;;;;5140625;27;20047;-57
2022/12/29 07:06:42;;;;;;;13.55;3.20;;;8.90;99.90;;;;;;5146413;27;20034;-57
2022/12/29 07:09:08;;;;;;;17.30;2.75;;;8.90;99.90;;;;;;5159711;27;20398;-57
2022/12/29 07:11:34;;;;;;;13.18;2.20;;;9.00;99.90;;;;;;5154618;27;20167;-59
2022/12/29 07:14:00;;;;;;;15.52;3.30;;;8.90;99.90;;;;;;5140749;27;20039;-58
2022/12/29 07:16:26;;;;;;;13.32;2.63;;;9.00;99.90;;;;;;5122687;27;20050;-58
2022/12/29 07:18:52;;;;;;;14.55;2.97;;;9.00;99.90;;;;;;5159609;27;20046;-58
2022/12/29 07:21:18;;;;;;;16.88;2.90;;;9.00;99.90;;;;;;5157123;27;20031;-58
2022/12/29 07:23:44;;;;;;;10.63;2.55;;;8.90;99.90;;;;;;5141975;27;20031;-58
2022/12/29 07:26:12;;;;;;;13.63;3.05;;;9.00;99.90;;;;;;5141845;27;20439;-58
2022/12/29 07:28:38;;;;;;;18.42;3.08;;;9.00;99.90;;;;;;5150669;27;20049;-58
2022/12/29 07:31:05;;;;;;;13.10;2.60;;;9.10;99.90;;;;;;5142050;27;20031;-58
2022/12/29 07:33:32;;;;;;;20.15;3.08;;;9.00;99.90;;;;;;5149076;27;20091;-58
2022/12/29 07:35:59;;;;;;;16.17;3.05;;;9.10;99.90;;;;;;5139823;27;20038;-58
2022/12/29 07:38:24;;;;;;;18.05;2.65;;;9.20;99.90;;;;;;5145745;27;20107;-58
2022/12/29 07:40:50;;;;;;;21.83;3.03;;;9.20;99.90;;;;;;5120262;27;20070;-58
2022/12/29 07:43:16;;;;;;;13.95;2.60;;;9.10;99.90;;;;;;5136584;27;20122;-58
2022/12/29 07:45:41;;;;;;;18.25;3.83;;;9.20;99.90;;;;;;5136450;27;20039;-57
2022/12/29 07:48:08;;;;;;;12.15;2.30;;;9.20;99.90;;;;;;5139656;27;20490;-58
2022/12/29 07:50:37;;;;;;;12.82;2.15;;;9.20;99.90;;;;;;5137215;27;20062;-57
2022/12/29 07:53:03;;;;;;;20.23;3.20;;;9.20;99.90;;;;;;5140914;27;20444;-57
2022/12/29 07:55:29;;;;;;;16.48;3.05;;;9.20;99.90;;;;;;5138656;27;20046;-56
2022/12/29 07:57:56;;;;;;;11.95;2.60;;;9.20;99.90;;;;;;5145640;27;20042;-57
2022/12/29 08:00:22;;;;;;;11.95;2.50;;;9.20;99.90;;;;;;5138657;27;20043;-57
2022/12/29 08:02:48;;;;;;;19.77;3.45;;;9.20;99.90;;;;;;5128595;27;20035;-57
2022/12/29 08:05:15;;;;;;;14.48;3.20;;;9.20;99.90;;;;;;5143400;27;20047;-57
2022/12/29 08:07:43;;;;;;;16.00;2.80;;;9.30;99.90;;;;;;5156241;27;20470;-57
2022/12/29 08:10:10;;;;;;;19.13;3.10;;;9.30;99.90;;;;;;5145579;27;20614;-57
2022/12/29 08:12:37;;;;;;;10.38;2.80;;;9.20;99.90;;;;;;5135048;27;20043;-57
2022/12/29 08:15:03;;;;;;;13.73;2.70;;;9.30;99.90;;;;;;5135371;27;20091;-57
2022/12/29 08:17:29;;;;;;;11.77;2.95;;;9.30;99.90;;;;;;5135491;27;20116;-57
2022/12/29 08:19:55;;;;;;;14.68;2.95;;;9.30;99.90;;;;;;5136321;27;20047;-57
2022/12/29 08:22:20;;;;;;;17.02;3.45;;;9.30;99.90;;;;;;5135993;27;20386;-56
2022/12/29 08:24:46;;;;;;;14.02;2.80;;;9.30;99.90;;;;;;5134896;27;20035;-57
2022/12/29 08:27:11;;;;;;;16.30;2.50;;;9.30;99.90;;;;;;5135288;27;20079;-58
2022/12/29 08:29:37;;;;;;;21.45;4.22;;;9.30;99.90;;;;;;5116455;27;20122;-57
2022/12/29 08:32:06;;;;;;;17.70;3.70;;;9.30;99.90;;;;;;5116735;27;20492;-56
2022/12/29 08:34:33;;;;;;;22.15;3.38;;;9.30;99.90;;;;;;5135622;27;20370;-57
2022/12/29 08:36:58;;;;;;;19.73;2.95;;;9.40;99.90;;;;;;5135006;27;20038;-58
2022/12/29 08:39:24;;;;;;;16.75;2.90;;;9.30;99.90;;;;;;5116645;27;20039;-58
2022/12/29 08:41:50;;;;;;;17.27;2.92;;;9.20;99.90;;;;;;5133741;27;20050;-57
2022/12/29 08:44:16;;;;;;;18.33;2.90;;;9.20;99.90;;;;;;5135448;27;20104;-57
2022/12/29 08:46:42;;;;;;;17.08;3.70;;;9.30;99.90;;;;;;5133715;27;20566;-57
2022/12/29 08:49:07;;;;;;;21.67;4.22;;;9.20;99.90;;;;;;5135613;27;20299;-58
2022/12/29 08:51:33;;;;;;;21.02;3.42;;;9.20;99.90;;;;;;5134654;27;20081;-56
2022/12/29 08:53:59;;;;;;;13.68;2.70;;;9.30;99.90;;;;;;5135043;27;20073;-57
2022/12/29 08:56:25;;;;;;;17.73;2.67;;;9.20;99.90;;;;;;5153697;27;20042;-58
2022/12/29 08:58:52;;;;;;;14.23;3.38;;;9.30;99.90;;;;;;5144397;27;20035;-58
2022/12/29 09:01:18;;;;;;;16.80;3.30;;;9.20;99.90;;;;;;5134784;27;20035;-58
2022/12/29 09:03:44;;;;;;;24.27;3.47;;;9.30;99.90;;;;;;5134308;27;20058;-58
2022/12/29 09:06:09;;;;;;;18.67;3.08;;;9.30;99.90;;;;;;5139430;27;20035;-57
2022/12/29 09:08:35;;;;;;;18.42;2.67;;;9.30;99.90;;;;;;5143206;27;20070;-59
2022/12/29 09:11:14;;;;;;;22.88;3.30;;;9.30;99.90;;;;;;5134596;27;20078;-58
2022/12/29 09:13:39;;;;;;;20.67;3.20;;;9.30;99.90;;;;;;5135026;27;20122;-57
2022/12/29 09:16:05;;;;;;;22.08;3.88;;;9.20;99.90;;;;;;5133551;27;20494;-57
2022/12/29 09:18:31;;;;;;;20.65;3.33;;;9.10;99.90;;;;;;5135289;28;20081;-58
2022/12/29 09:20:59;;;;;;;21.00;3.05;;;9.00;99.90;;;;;;5120925;28;20034;-58
2022/12/29 09:23:25;;;;;;;27.02;4.43;;;9.00;99.90;;;;;;5116351;28;20433;-58
2022/12/29 09:25:52;;;;;;;19.00;3.17;;;8.90;99.90;;;;;;5134743;28;20286;-58
2022/12/29 09:28:17;;;;;;;60.90;38.95;;;9.00;99.90;;;;;;5133827;28;20415;-59
2022/12/29 09:30:43;;;;;;;15.85;3.53;;;9.00;99.90;;;;;;5135174;28;20102;-56
2022/12/29 09:33:09;;;;;;;18.90;3.53;;;9.00;99.90;;;;;;5133418;28;20091;-58
2022/12/29 09:35:34;;;;;;;17.65;3.08;;;9.10;99.90;;;;;;5134516;28;20046;-58
2022/12/29 09:38:00;;;;;;;22.55;3.65;;;9.00;99.90;;;;;;5143406;27;20364;-58
2022/12/29 09:40:30;;;;;;;20.35;3.55;;;9.10;99.90;;;;;;5134566;28;20035;-58
2022/12/29 09:43:07;;;;;;;17.83;3.22;;;9.00;99.90;;;;;;5144845;27;20047;-58
2022/12/29 09:46:04;;;;;;;32.42;14.02;;;9.00;99.90;;;;;;5154941;27;20066;-58
2022/12/29 09:48:40;;;;;;;18.77;3.42;;;8.90;99.90;;;;;;5122421;27;20566;-57
2022/12/29 09:51:12;;;;;;;16.67;3.55;;;8.90;99.90;;;;;;5144613;27;20043;-58
2022/12/29 09:53:45;;;;;;;21.27;3.75;;;8.90;99.90;;;;;;5152662;27;20063;-58
2022/12/29 09:56:16;;;;;;;20.10;5.03;;;9.10;99.90;;;;;;5154127;27;20038;-58
2022/12/29 09:58:57;;;;;;;12.65;3.05;;;9.10;99.90;;;;;;5160967;27;20543;-59
2022/12/29 10:02:02;;;;;;;13.43;2.58;;;9.10;99.90;;;;;;5162949;27;20050;-58
2022/12/29 10:04:28;;;;;;;14.05;2.50;;;9.00;99.90;;;;;;5162924;27;20087;-57
2022/12/29 10:06:58;;;;;;;16.05;2.35;;;8.90;99.90;;;;;;5159025;27;20108;-58
2022/12/29 10:09:57;;;;;;;15.32;3.22;;;8.90;99.90;;;;;;5159183;27;20046;-57
2022/12/29 10:12:57;;;;;;;14.48;2.33;;;8.90;99.90;;;;;;5161698;27;20491;-58
2022/12/29 10:15:49;;;;;;;15.25;2.92;;;8.80;99.90;;;;;;5121263;27;20055;-58
2022/12/29 10:18:42;;;;;;;14.98;2.70;;;8.80;99.90;;;;;;5161078;27;20102;-58
2022/12/29 10:21:23;;;;;;;14.63;2.85;;;8.90;99.90;;;;;;5129027;27;20130;-58
2022/12/29 10:23:52;;;;;;;16.13;2.38;;;8.70;99.90;;;;;;5141754;27;20051;-58
2022/12/29 10:26:22;;;;;;;12.48;2.97;;;8.90;99.90;;;;;;5141977;27;20395;-57
2022/12/29 10:28:51;;;;;;;12.73;2.55;;;8.70;99.90;;;;;;5142003;27;20035;-58
2022/12/29 10:31:23;;;;;;;15.55;3.10;;;8.90;99.90;;;;;;5138049;27;20214;-59
2022/12/29 10:33:56;;;;;;;13.82;2.30;;;8.90;99.90;;;;;;5141403;27;20046;-58
2022/12/29 10:36:33;;;;;;;13.10;3.30;;;8.80;99.90;;;;;;5141976;27;20069;-58
2022/12/29 10:39:14;;;;;;;12.15;2.45;;;8.90;99.90;;;;;;5141183;27;20043;-59
2022/12/29 10:41:48;;;;;;;17.33;3.37;;;8.90;99.90;;;;;;5147491;27;20072;-58
2022/12/29 10:44:16;;;;;;;14.35;2.58;;;8.80;99.90;;;;;;5157012;27;20051;-58
2022/12/29 10:46:44;;;;;;;18.05;3.20;;;8.80;99.90;;;;;;5153896;27;20054;-58
2022/12/29 10:49:17;;;;;;;16.02;3.00;;;8.90;99.90;;;;;;5155463;27;20035;-59
2022/12/29 10:51:46;;;;;;;16.73;2.85;;;8.90;99.90;;;;;;5148850;27;20062;-58
2022/12/29 10:54:33;;;;;;;14.52;3.35;;;9.00;99.90;;;;;;5144650;27;20423;-58
2022/12/29 10:57:04;;;;;;;20.80;3.13;;;8.90;99.90;;;;;;5146036;27;20030;-58
2022/12/29 10:59:32;;;;;;;19.25;4.18;;;8.90;99.90;;;;;;5160956;27;20047;-58
2022/12/29 11:02:10;;;;;;;25.48;5.07;;;8.90;99.90;;;;;;5151221;27;20039;-58
2022/12/29 11:04:54;;;;;;;20.67;4.20;;;9.10;99.90;;;;;;5149131;27;20038;-58
2022/12/29 11:07:21;;;;;;;21.20;3.50;;;9.10;99.90;;;;;;5161006;27;20114;-59
2022/12/29 11:09:47;;;;;;;19.33;4.53;;;9.00;99.90;;;;;;5161059;27;20030;-59
2022/12/29 11:12:19;;;;;;;15.75;2.80;;;9.00;99.90;;;;;;5161104;27;20094;-59
2022/12/29 11:14:44;;;;;;;22.60;4.38;;;9.00;99.90;;;;;;5160228;27;20039;-58
2022/12/29 11:17:16;;;;;;;21.90;4.47;;;9.00;99.90;;;;;;5161061;27;20065;-58
2022/12/29 11:19:42;;;;;;;23.17;4.15;;;9.10;99.90;;;;;;5161368;27;20043;-57
2022/12/29 11:22:27;;;;;;;18.13;3.47;;;9.00;99.90;;;;;;5160759;27;20393;-58
2022/12/29 11:25:04;;;;;;;24.98;4.78;;;9.10;99.90;;;;;;5161110;27;20394;-59
2022/12/29 11:27:30;;;;;;;21.38;3.47;;;9.10;99.90;;;;;;5152386;27;20065;-58
2022/12/29 11:29:55;;;;;;;19.52;3.72;;;9.20;99.90;;;;;;5140414;27;21022;-58
2022/12/29 11:32:27;;;;;;;22.27;3.75;;;9.20;99.90;;;;;;5145912;27;20065;-58
2022/12/29 11:34:53;;;;;;;19.92;4.10;;;9.10;99.90;;;;;;5161015;27;20101;-58
2022/12/29 11:37:21;;;;;;;21.23;3.55;;;9.10;99.90;;;;;;5141815;27;20547;-59
2022/12/29 11:39:57;;;;;;;28.35;4.45;;;9.10;99.90;;;;;;5149526;27;20065;-59
2022/12/29 11:42:36;;;;;;;26.10;3.30;;;9.20;99.90;;;;;;5153919;27;20070;-58
2022/12/29 11:45:26;;;;;;;21.48;4.05;;;9.20;99.90;;;;;;5139723;27;20038;-58
2022/12/29 11:47:55;;;;;;;26.67;4.60;;;9.20;99.90;;;;;;5140031;27;20631;-58
2022/12/29 11:50:30;;;;;;;22.08;3.75;;;9.10;99.90;;;;;;5138685;27;20047;-59
2022/12/29 11:53:16;;;;;;;20.38;3.75;;;9.20;99.90;;;;;;5139480;27;20491;-60
2022/12/29 11:55:55;;;;;;;21.58;3.72;;;9.20;99.90;;;;;;5139731;27;20031;-58
2022/12/29 11:58:29;;;;;;;16.70;3.30;;;9.10;99.90;;;;;;5151410;27;20047;-58
2022/12/29 12:00:57;;;;;;;18.27;3.95;;;9.10;99.90;;;;;;5161050;27;20067;-59
2022/12/29 12:03:26;;;;;;;20.35;3.42;;;9.20;99.90;;;;;;5123385;27;20063;-59
2022/12/29 12:06:02;;;;;;;20.52;3.13;;;9.10;99.90;;;;;;5160042;27;20043;-59
2022/12/29 12:08:53;;;;;;;17.65;3.63;;;9.20;99.90;;;;;;5158624;27;20087;-58
2022/12/29 12:11:37;;;;;;;21.90;3.28;;;9.10;99.90;;;;;;5152420;27;20035;-59
2022/12/29 12:14:15;;;;;;;20.42;3.97;;;9.10;99.90;;;;;;5121075;27;20088;-58
2022/12/29 12:16:43;;;;;;;17.52;4.40;;;9.10;99.90;;;;;;5145980;27;20061;-58
2022/12/29 12:19:33;;;;;;;16.25;3.10;;;9.20;99.90;;;;;;5160476;27;20102;-58
2022/12/29 12:22:10;;;;;;;18.58;4.65;;;9.20;99.90;;;;;;5159218;27;20060;-58
2022/12/29 12:24:47;;;;;;;17.40;3.33;;;9.20;99.90;;;;;;5159275;27;20038;-59
2022/12/29 12:27:24;;;;;;;16.08;2.20;;;9.40;99.90;;;;;;5160109;27;20039;-58
2022/12/29 12:30:05;;;;;;;14.48;2.42;;;9.40;99.90;;;;;;5159616;27;20053;-58
2022/12/29 12:32:44;;;;;;;13.60;2.00;;;9.50;99.90;;;;;;5157700;27;20426;-58
2022/12/29 12:35:22;;;;;;;12.52;2.38;;;9.50;99.90;;;;;;5145041;27;20043;-58
2022/12/29 12:37:54;;;;;;;11.95;2.05;;;9.40;99.90;;;;;;5138589;27;20050;-58
2022/12/29 12:40:53;;;;;;;11.18;2.30;;;9.30;99.90;;;;;;5139181;27;20075;-58
2022/12/29 12:43:51;;;;;;;11.70;2.83;;;9.30;99.90;;;;;;5147394;27;20038;-58
2022/12/29 12:46:35;;;;;;;15.38;2.10;;;9.30;99.90;;;;;;5149065;27;20122;-58
2022/12/29 12:49:17;;;;;;;13.43;2.25;;;9.20;99.90;;;;;;5159835;27;20042;-58
2022/12/29 12:52:00;;;;;;;13.82;1.70;;;9.20;99.90;;;;;;5159679;27;20046;-58
2022/12/29 12:54:41;;;;;;;9.55;2.28;;;9.20;99.90;;;;;;5157208;27;20058;-58
2022/12/29 12:57:34;;;;;;;13.15;2.53;;;9.30;99.90;;;;;;5142272;27;20051;-59
2022/12/29 13:00:17;;;;;;;15.13;2.20;;;9.30;99.90;;;;;;5149749;27;20038;-58
2022/12/29 13:02:58;;;;;;;10.60;2.22;;;9.40;99.90;;;;;;5153571;27;20061;-58
2022/12/29 13:06:02;;;;;;;13.45;1.80;;;9.20;99.90;;;;;;5159883;27;20046;-60
2022/12/29 13:08:53;;;;;;;10.50;2.00;;;9.20;99.90;;;;;;5054484;28;20444;-59
2022/12/29 13:11:49;;;;;;;10.43;1.75;;;9.20;99.90;;;;;;5041321;28;20045;-57
2022/12/29 13:14:30;;;;;;;12.95;1.50;;;9.30;99.90;;;;;;5108293;27;20280;-57
2022/12/29 13:17:20;;;;;;;22.20;2.40;;;9.30;99.90;;;;;;5122306;27;20043;-57
2022/12/29 13:19:50;;;;;;;9.20;1.70;;;9.40;99.90;;;;;;5157360;27;20051;-57
2022/12/29 13:22:41;;;;;;;9.35;1.92;;;9.30;99.90;;;;;;5138686;27;20409;-58
2022/12/29 13:25:30;;;;;;;14.90;2.38;;;9.30;99.90;;;;;;5148871;27;20057;-58
2022/12/29 13:28:09;;;;;;;11.75;1.55;;;9.20;99.90;;;;;;5147232;27;20062;-57
2022/12/29 13:31:00;;;;;;;7.47;1.65;;;9.20;99.90;;;;;;5146781;27;20107;-57
2022/12/29 13:34:04;;;;;;;8.93;2.05;;;9.20;99.90;;;;;;5149703;27;20035;-57
2022/12/29 13:36:44;;;;;;;10.73;2.05;;;9.20;99.90;;;;;;5056218;28;20041;-57
2022/12/29 13:39:19;;;;;;;11.45;1.83;;;9.10;99.90;;;;;;5141650;27;20077;-57
2022/12/29 13:41:54;;;;;;;12.98;1.77;;;9.00;99.90;;;;;;5126812;27;20035;-57
2022/12/29 13:44:31;;;;;;;13.13;4.28;;;9.00;99.90;;;;;;5154847;27;20042;-55
2022/12/29 13:47:01;;;;;;;9.88;1.83;;;8.90;99.90;;;;;;5148161;27;20051;-57